Time;durP1;ratioP1;P1;durP2;ratioP2;P2;SDS_P1;SDS_P2;PMS_P1;PMS_P2;Temp;Humidity;BMP_temperature;BMP_pressure;BME280_temperature;BME280_humidity;BME280_pressure;Samples;Min_cycle;Max_cycle;Signal;HPM_P1;HPM_P2
2021/08/27 00:00:10;;;;;;;170.70;160.00;;;;;;;;;;4972601;28;20490;-67
2021/08/27 00:02:37;;;;;;;166.00;155.60;;;;;;;;;;4971367;28;20483;-67
2021/08/27 00:05:06;;;;;;;172.50;161.73;;;;;;;;;;4974465;28;20451;-67
2021/08/27 00:07:33;;;;;;;163.97;153.93;;;;;;;;;;4973519;28;20502;-68
2021/08/27 00:10:01;;;;;;;169.17;158.67;;;;;;;;;;4973310;28;20478;-67
2021/08/27 00:12:28;;;;;;;169.17;158.53;;;;;;;;;;4973811;28;20832;-68
2021/08/27 00:14:55;;;;;;;167.63;157.03;;;;;;;;;;4955750;28;20452;-67
2021/08/27 00:17:29;;;;;;;170.67;159.47;;;;;;;;;;4955103;29;20460;-68
2021/08/27 00:19:56;;;;;;;166.23;155.63;;;;;;;;;;4971860;28;20487;-67
2021/08/27 00:22:24;;;;;;;163.30;153.10;;;;;;;;;;4973908;28;20554;-66
2021/08/27 00:24:51;;;;;;;160.47;150.17;;;;;;;;;;4957813;28;20463;-68
2021/08/27 00:27:19;;;;;;;161.73;151.50;;;;;;;;;;4954916;29;20843;-67
2021/08/27 00:29:46;;;;;;;167.57;157.00;;;;;;;;;;4955614;28;20840;-68
2021/08/27 00:32:13;;;;;;;163.20;152.70;;;;;;;;;;4970108;28;20448;-68
2021/08/27 00:34:41;;;;;;;158.70;148.70;;;;;;;;;;4965739;28;20834;-67
2021/08/27 00:37:08;;;;;;;157.60;147.80;;;;;;;;;;4960721;28;20488;-68
2021/08/27 00:39:35;;;;;;;155.40;145.57;;;;;;;;;;4964600;28;20475;-67
2021/08/27 00:42:02;;;;;;;152.50;142.90;;;;;;;;;;4960238;28;20480;-66
2021/08/27 00:44:30;;;;;;;160.17;150.07;;;;;;;;;;4964585;28;20813;-68
2021/08/27 00:46:58;;;;;;;159.60;149.43;;;;;;;;;;4963333;28;20456;-67
2021/08/27 00:49:25;;;;;;;157.17;147.17;;;;;;;;;;4954512;29;20480;-68
2021/08/27 00:51:52;;;;;;;166.00;155.70;;;;;;;;;;4961736;28;20970;-66
2021/08/27 00:54:20;;;;;;;164.37;153.83;;;;;;;;;;4973898;28;20454;-68
2021/08/27 00:56:48;;;;;;;164.67;154.23;;;;;;;;;;4972468;28;20828;-67
2021/08/27 00:59:15;;;;;;;167.30;156.67;;;;;;;;;;4972847;28;20472;-68
2021/08/27 01:01:43;;;;;;;170.33;159.27;;;;;;;;;;4971131;28;20494;-68
2021/08/27 01:04:11;;;;;;;166.67;156.07;;;;;;;;;;4973477;28;20832;-66
2021/08/27 01:06:40;;;;;;;169.17;158.47;;;;;;;;;;4968327;28;20452;-68
2021/08/27 01:09:08;;;;;;;165.20;154.60;;;;;;;;;;4953911;29;20995;-68
2021/08/27 01:11:37;;;;;;;165.53;155.13;;;;;;;;;;4957501;28;20531;-68
2021/08/27 01:14:06;;;;;;;172.37;161.33;;;;;;;;;;4973082;28;20461;-69
2021/08/27 01:16:35;;;;;;;170.00;159.23;;;;;;;;;;4971883;28;20547;-67
2021/08/27 01:19:13;;;;;;;174.80;163.67;;;;;;;;;;4955006;28;20573;-68
2021/08/27 01:21:49;;;;;;;170.73;159.93;;;;;;;;;;4954393;28;20493;-69
2021/08/27 01:24:18;;;;;;;162.73;152.53;;;;;;;;;;4954089;29;20822;-68
2021/08/27 01:26:47;;;;;;;163.27;152.77;;;;;;;;;;4956459;28;20558;-66
2021/08/27 01:29:16;;;;;;;159.23;149.03;;;;;;;;;;4968066;28;20994;-69
2021/08/27 01:31:45;;;;;;;164.50;153.97;;;;;;;;;;4962440;28;20529;-67
2021/08/27 01:34:18;;;;;;;163.17;152.80;;;;;;;;;;4962830;28;20825;-68
2021/08/27 01:36:48;;;;;;;165.93;155.43;;;;;;;;;;4972135;28;20495;-68
2021/08/27 01:39:17;;;;;;;167.00;156.70;;;;;;;;;;4990423;28;20470;-69
2021/08/27 01:41:46;;;;;;;169.90;159.40;;;;;;;;;;4957181;28;20488;-68
2021/08/27 01:44:14;;;;;;;166.57;155.97;;;;;;;;;;4953843;29;20448;-68
2021/08/27 01:46:43;;;;;;;158.10;148.10;;;;;;;;;;4953719;28;20948;-69
2021/08/27 01:49:11;;;;;;;159.50;149.40;;;;;;;;;;4953742;29;20474;-69
2021/08/27 01:51:38;;;;;;;158.00;147.90;;;;;;;;;;4953650;28;20453;-68
2021/08/27 01:54:07;;;;;;;160.53;150.03;;;;;;;;;;4968737;28;20448;-69
2021/08/27 01:56:36;;;;;;;158.50;148.17;;;;;;;;;;4953639;29;20482;-69
2021/08/27 01:59:04;;;;;;;168.07;157.47;;;;;;;;;;4971721;28;20875;-69
2021/08/27 02:01:32;;;;;;;165.73;155.13;;;;;;;;;;4972527;28;20522;-69
2021/08/27 02:04:02;;;;;;;167.60;156.80;;;;;;;;;;4967862;28;20452;-69
2021/08/27 02:06:29;;;;;;;171.87;160.80;;;;;;;;;;4972559;28;20455;-69
2021/08/27 02:08:57;;;;;;;171.10;160.40;;;;;;;;;;4956147;28;20487;-69
2021/08/27 02:11:25;;;;;;;168.23;157.57;;;;;;;;;;4953988;28;20452;-69
2021/08/27 02:13:53;;;;;;;178.20;167.07;;;;;;;;;;4953033;29;20482;-68
2021/08/27 02:16:20;;;;;;;172.57;161.43;;;;;;;;;;4964563;28;20557;-69
2021/08/27 02:18:48;;;;;;;175.80;164.77;;;;;;;;;;4972291;28;20479;-68
2021/08/27 02:21:15;;;;;;;181.27;170.17;;;;;;;;;;4965304;28;20448;-68
2021/08/27 02:23:43;;;;;;;175.87;164.97;;;;;;;;;;4973075;28;20923;-69
2021/08/27 02:26:13;;;;;;;176.10;164.97;;;;;;;;;;4975702;28;20455;-69
2021/08/27 02:28:43;;;;;;;185.07;173.77;;;;;;;;;;4976360;28;20473;-69
2021/08/27 02:31:11;;;;;;;190.40;178.90;;;;;;;;;;4968841;28;20523;-67
2021/08/27 02:33:39;;;;;;;187.90;176.20;;;;;;;;;;4956625;29;20932;-68
2021/08/27 02:36:07;;;;;;;188.43;176.83;;;;;;;;;;4968320;28;20834;-69
2021/08/27 02:38:35;;;;;;;177.10;166.00;;;;;;;;;;4976125;28;20457;-68
2021/08/27 02:41:03;;;;;;;184.17;172.77;;;;;;;;;;4970174;28;20464;-68
2021/08/27 02:43:30;;;;;;;179.60;168.30;;;;;;;;;;4956868;29;20523;-68
2021/08/27 02:45:58;;;;;;;181.53;170.33;;;;;;;;;;4956749;28;20956;-67
2021/08/27 02:48:25;;;;;;;194.27;182.20;;;;;;;;;;4957866;28;20455;-68
2021/08/27 02:50:56;;;;;;;196.30;184.30;;;;;;;;;;4972965;28;20466;-69
2021/08/27 02:53:24;;;;;;;201.30;189.30;;;;;;;;;;4956428;28;20799;-67
2021/08/27 02:55:56;;;;;;;187.67;176.27;;;;;;;;;;4956821;28;20447;-68
2021/08/27 02:58:24;;;;;;;189.50;178.00;;;;;;;;;;4955889;29;20479;-67
2021/08/27 03:00:55;;;;;;;200.00;188.00;;;;;;;;;;4957652;28;20456;-68
2021/08/27 03:03:25;;;;;;;189.33;177.27;;;;;;;;;;4964803;28;20484;-69
2021/08/27 03:05:54;;;;;;;189.47;177.97;;;;;;;;;;4957420;28;20460;-68
2021/08/27 03:08:22;;;;;;;192.20;180.60;;;;;;;;;;4957226;29;20452;-68
2021/08/27 03:10:52;;;;;;;187.63;175.83;;;;;;;;;;4956836;28;20546;-68
2021/08/27 03:13:21;;;;;;;188.27;176.43;;;;;;;;;;4956442;28;20452;-69
2021/08/27 03:15:50;;;;;;;187.70;175.70;;;;;;;;;;4962641;28;20462;-68
2021/08/27 03:18:20;;;;;;;196.63;184.30;;;;;;;;;;4965169;28;20466;-69
2021/08/27 03:20:52;;;;;;;195.67;183.67;;;;;;;;;;4957327;28;20539;-68
2021/08/27 03:23:20;;;;;;;190.30;178.70;;;;;;;;;;4978220;28;20482;-68
2021/08/27 03:25:48;;;;;;;201.20;188.80;;;;;;;;;;4993563;28;20457;-69
2021/08/27 03:28:17;;;;;;;191.67;179.67;;;;;;;;;;4974105;28;20492;-69
2021/08/27 03:30:48;;;;;;;202.63;190.13;;;;;;;;;;4973770;28;20554;-68
2021/08/27 03:33:15;;;;;;;185.43;173.27;;;;;;;;;;4973546;28;20458;-69
2021/08/27 03:35:43;;;;;;;193.73;181.53;;;;;;;;;;4972744;28;20451;-68
2021/08/27 03:38:11;;;;;;;192.00;179.93;;;;;;;;;;4973618;28;20788;-69
2021/08/27 03:40:39;;;;;;;203.13;190.43;;;;;;;;;;4973323;28;20497;-67
2021/08/27 03:43:07;;;;;;;184.93;172.93;;;;;;;;;;4973607;28;20479;-69
2021/08/27 03:45:34;;;;;;;187.90;175.80;;;;;;;;;;4972728;28;20538;-67
2021/08/27 03:48:02;;;;;;;191.00;179.03;;;;;;;;;;4973743;28;20462;-69
2021/08/27 03:50:29;;;;;;;212.53;199.27;;;;;;;;;;4972878;28;20566;-69
2021/08/27 03:52:57;;;;;;;200.63;188.23;;;;;;;;;;4962809;28;20475;-68
2021/08/27 03:55:27;;;;;;;190.00;178.10;;;;;;;;;;4958592;28;20829;-69
2021/08/27 03:57:55;;;;;;;184.40;172.60;;;;;;;;;;4968044;28;20547;-69
2021/08/27 04:00:23;;;;;;;186.00;173.53;;;;;;;;;;4973457;28;20475;-69
2021/08/27 04:02:51;;;;;;;181.67;169.70;;;;;;;;;;4971741;28;20537;-69
2021/08/27 04:05:19;;;;;;;194.87;182.40;;;;;;;;;;4973780;28;20957;-69
2021/08/27 04:07:46;;;;;;;181.07;169.53;;;;;;;;;;4972320;28;20463;-69
2021/08/27 04:10:16;;;;;;;179.30;167.10;;;;;;;;;;4966430;28;20568;-69
2021/08/27 04:12:44;;;;;;;170.77;159.17;;;;;;;;;;4959666;28;21025;-69
2021/08/27 04:15:12;;;;;;;160.43;149.43;;;;;;;;;;4973743;28;20974;-69
2021/08/27 04:17:40;;;;;;;170.77;159.27;;;;;;;;;;4972265;28;20836;-68
2021/08/27 04:20:09;;;;;;;160.93;149.77;;;;;;;;;;4937042;28;1077288;-67
2021/08/27 04:22:36;;;;;;;174.27;162.03;;;;;;;;;;4970018;28;20224;-68
2021/08/27 04:25:03;;;;;;;175.90;163.77;;;;;;;;;;4972115;28;20459;-67
2021/08/27 04:27:30;;;;;;;164.90;153.50;;;;;;;;;;4971804;28;20449;-68
2021/08/27 04:29:58;;;;;;;185.57;173.40;;;;;;;;;;4954366;29;20476;-69
2021/08/27 04:32:26;;;;;;;164.07;152.87;;;;;;;;;;4966991;28;20452;-68
2021/08/27 04:34:53;;;;;;;194.13;181.03;;;;;;;;;;4973034;28;20452;-69
2021/08/27 04:37:20;;;;;;;161.70;150.40;;;;;;;;;;4971852;28;20994;-67
2021/08/27 04:39:47;;;;;;;166.30;154.90;;;;;;;;;;4954676;28;20470;-68
2021/08/27 04:42:14;;;;;;;166.90;155.13;;;;;;;;;;4953944;29;20579;-69
2021/08/27 04:44:41;;;;;;;164.70;153.87;;;;;;;;;;4973065;28;20547;-68
2021/08/27 04:47:10;;;;;;;145.47;135.27;;;;;;;;;;4973599;28;20485;-68
2021/08/27 04:49:37;;;;;;;149.97;139.67;;;;;;;;;;4961104;28;20490;-69
2021/08/27 04:52:04;;;;;;;153.50;143.07;;;;;;;;;;4961996;28;20459;-68
2021/08/27 04:54:31;;;;;;;148.03;137.77;;;;;;;;;;4954394;29;20463;-68
2021/08/27 04:56:58;;;;;;;138.47;128.30;;;;;;;;;;4954188;28;20452;-68
2021/08/27 04:59:25;;;;;;;137.63;127.37;;;;;;;;;;4954257;29;20818;-69
2021/08/27 05:01:53;;;;;;;145.77;135.10;;;;;;;;;;4957392;28;20456;-69
2021/08/27 05:04:21;;;;;;;151.90;140.27;;;;;;;;;;4955697;28;20451;-71
2021/08/27 05:06:48;;;;;;;163.83;151.83;;;;;;;;;;4966248;28;20455;-68
2021/08/27 05:09:17;;;;;;;176.50;162.70;;;;;;;;;;4972942;28;20470;-69
2021/08/27 05:11:44;;;;;;;218.53;202.60;;;;;;;;;;4972293;28;20519;-69
2021/08/27 05:14:12;;;;;;;227.87;211.17;;;;;;;;;;4973557;28;20444;-69
2021/08/27 05:16:39;;;;;;;394.30;363.83;;;;;;;;;;4970118;28;20483;-68
2021/08/27 05:19:06;;;;;;;327.57;307.03;;;;;;;;;;4994000;23;20492;-60
2021/08/27 05:21:36;;;;;;;315.60;294.83;;;;;;;;;;4987725;28;20470;-60
2021/08/27 05:24:04;;;;;;;334.60;313.10;;;;;;;;;;4992830;28;20482;-59
2021/08/27 05:26:31;;;;;;;366.90;344.80;;;;;;;;;;4991436;28;20456;-59
2021/08/27 05:28:58;;;;;;;386.33;364.33;;;;;;;;;;4995045;28;20461;-59
2021/08/27 05:31:26;;;;;;;403.67;381.07;;;;;;;;;;5010699;28;20986;-59
2021/08/27 05:33:53;;;;;;;398.77;376.93;;;;;;;;;;4992498;28;20815;-59
2021/08/27 05:36:20;;;;;;;391.77;370.13;;;;;;;;;;4992136;28;20454;-59
2021/08/27 05:38:49;;;;;;;402.57;381.33;;;;;;;;;;4992285;28;20457;-59
2021/08/27 05:41:16;;;;;;;415.50;394.77;;;;;;;;;;4992320;28;20457;-59
2021/08/27 05:43:43;;;;;;;382.40;362.00;;;;;;;;;;5011891;28;21018;-59
2021/08/27 05:46:11;;;;;;;388.03;367.40;;;;;;;;;;4995671;28;20454;-60
2021/08/27 05:48:38;;;;;;;368.23;347.57;;;;;;;;;;4991923;28;20454;-60
2021/08/27 05:51:05;;;;;;;374.70;354.83;;;;;;;;;;4991304;28;20818;-60
2021/08/27 05:53:32;;;;;;;362.87;342.67;;;;;;;;;;4992479;28;20450;-60
2021/08/27 05:56:01;;;;;;;365.63;345.13;;;;;;;;;;4992570;28;20450;-59
2021/08/27 05:58:28;;;;;;;359.97;340.87;;;;;;;;;;5005823;28;20460;-61
2021/08/27 06:00:56;;;;;;;345.87;326.87;;;;;;;;;;5015977;28;20473;-59
2021/08/27 06:03:23;;;;;;;339.27;321.07;;;;;;;;;;5014836;28;20485;-60
2021/08/27 06:05:50;;;;;;;345.90;326.97;;;;;;;;;;4995187;28;20463;-60
2021/08/27 06:08:17;;;;;;;313.30;294.43;;;;;;;;;;4999750;28;20460;-60
2021/08/27 06:10:44;;;;;;;299.17;281.70;;;;;;;;;;5015925;28;20471;-61
2021/08/27 06:13:13;;;;;;;317.67;300.33;;;;;;;;;;5014522;28;21181;-60
2021/08/27 06:15:43;;;;;;;330.17;312.80;;;;;;;;;;5015801;28;21003;-60
2021/08/27 06:18:10;;;;;;;347.77;328.87;;;;;;;;;;5005702;28;20557;-61
2021/08/27 06:20:37;;;;;;;338.97;320.47;;;;;;;;;;4995655;28;20486;-61
2021/08/27 06:23:04;;;;;;;321.77;304.10;;;;;;;;;;4976872;28;20491;-61
2021/08/27 06:25:32;;;;;;;339.40;321.10;;;;;;;;;;4976578;28;20450;-61
2021/08/27 06:27:59;;;;;;;355.80;336.90;;;;;;;;;;4995866;28;20832;-61
2021/08/27 06:30:27;;;;;;;324.23;306.40;;;;;;;;;;4996230;28;20491;-61
2021/08/27 06:32:54;;;;;;;317.80;299.53;;;;;;;;;;4995750;28;20446;-61
2021/08/27 06:35:21;;;;;;;357.73;338.03;;;;;;;;;;5001281;28;20449;-61
2021/08/27 06:40:33;;;;;;;343.03;324.60;;;;;;;;;;4995890;28;20453;-61
2021/08/27 06:43:01;;;;;;;347.07;327.37;;;;;;;;;;4982276;28;20591;-60
2021/08/27 06:45:29;;;;;;;334.83;316.13;;;;;;;;;;4994509;28;20456;-61
2021/08/27 06:47:56;;;;;;;345.87;327.63;;;;;;;;;;4995077;28;20450;-60
2021/08/27 06:50:24;;;;;;;307.03;289.73;;;;;;;;;;4993850;28;20470;-61
2021/08/27 06:52:51;;;;;;;293.53;276.13;;;;;;;;;;5003351;28;20489;-60
2021/08/27 06:55:18;;;;;;;332.93;314.63;;;;;;;;;;5009279;28;20780;-60
2021/08/27 06:57:46;;;;;;;308.17;289.13;;;;;;;;;;4994759;28;20451;-60
2021/08/27 07:00:13;;;;;;;331.57;313.70;;;;;;;;;;4980320;28;21056;-62
2021/08/27 07:02:43;;;;;;;293.50;276.00;;;;;;;;;;4995336;28;20454;-61
2021/08/27 07:05:10;;;;;;;306.07;288.63;;;;;;;;;;4996809;28;20473;-59
2021/08/27 07:07:38;;;;;;;310.57;294.30;;;;;;;;;;5015078;28;20465;-61
2021/08/27 07:10:05;;;;;;;294.23;279.07;;;;;;;;;;5013341;28;20989;-60
2021/08/27 07:12:32;;;;;;;318.90;302.90;;;;;;;;;;5014353;28;20816;-62
2021/08/27 07:14:59;;;;;;;314.33;298.27;;;;;;;;;;5000160;28;20461;-61
2021/08/27 07:17:27;;;;;;;327.63;311.13;;;;;;;;;;5014806;28;20458;-64
2021/08/27 07:19:55;;;;;;;332.97;316.70;;;;;;;;;;5014127;28;20992;-63
2021/08/27 07:22:22;;;;;;;291.50;276.10;;;;;;;;;;4996559;28;20450;-61
2021/08/27 07:24:49;;;;;;;311.70;296.30;;;;;;;;;;4994560;28;20486;-62
2021/08/27 07:27:16;;;;;;;348.97;332.23;;;;;;;;;;5010563;28;20463;-59
2021/08/27 07:29:44;;;;;;;367.40;349.97;;;;;;;;;;5009554;28;20854;-59
2021/08/27 07:32:12;;;;;;;367.70;350.90;;;;;;;;;;5008817;28;20464;-61
2021/08/27 07:34:40;;;;;;;363.87;345.43;;;;;;;;;;5014348;28;20446;-61
2021/08/27 07:37:08;;;;;;;363.47;345.87;;;;;;;;;;5000236;28;20455;-61
2021/08/27 07:39:36;;;;;;;379.10;360.77;;;;;;;;;;4994419;28;20473;-61
2021/08/27 07:42:03;;;;;;;371.37;353.37;;;;;;;;;;5009075;28;20449;-62
2021/08/27 07:44:30;;;;;;;375.57;357.77;;;;;;;;;;5008251;28;20997;-60
2021/08/27 07:46:57;;;;;;;357.37;340.87;;;;;;;;;;4995142;28;20465;-60
2021/08/27 07:49:24;;;;;;;364.67;348.10;;;;;;;;;;4995009;28;20481;-60
2021/08/27 07:51:53;;;;;;;365.63;348.63;;;;;;;;;;5005210;28;20458;-60
2021/08/27 07:54:22;;;;;;;363.43;347.07;;;;;;;;;;5015947;28;20449;-60
2021/08/27 07:56:49;;;;;;;363.60;347.40;;;;;;;;;;5005809;28;20452;-60
2021/08/27 07:59:16;;;;;;;353.30;337.03;;;;;;;;;;4997629;28;20509;-60
2021/08/27 08:01:43;;;;;;;352.57;336.87;;;;;;;;;;4996941;28;20537;-64
2021/08/27 08:04:10;;;;;;;368.87;351.37;;;;;;;;;;4997808;28;20482;-64
2021/08/27 08:06:38;;;;;;;361.67;344.07;;;;;;;;;;4997865;28;20446;-63
2021/08/27 08:09:06;;;;;;;381.70;363.37;;;;;;;;;;5010501;28;21066;-62
2021/08/27 08:11:34;;;;;;;362.97;346.37;;;;;;;;;;5013787;28;20462;-62
2021/08/27 08:14:01;;;;;;;359.23;342.80;;;;;;;;;;5000618;28;20454;-62
2021/08/27 08:16:28;;;;;;;359.40;342.10;;;;;;;;;;4993558;28;20529;-61
2021/08/27 08:18:56;;;;;;;359.60;342.90;;;;;;;;;;5001465;28;20476;-62
2021/08/27 08:21:23;;;;;;;370.97;354.17;;;;;;;;;;4992443;28;20489;-62
2021/08/27 08:23:50;;;;;;;360.57;344.27;;;;;;;;;;4993021;28;20513;-61
2021/08/27 08:26:19;;;;;;;342.30;326.87;;;;;;;;;;4993387;28;20470;-62
2021/08/27 08:28:48;;;;;;;333.57;318.67;;;;;;;;;;4992951;28;20462;-65
2021/08/27 08:31:19;;;;;;;337.53;322.40;;;;;;;;;;4993419;28;20461;-65
2021/08/27 08:33:47;;;;;;;343.87;329.40;;;;;;;;;;4996665;28;20521;-64
2021/08/27 08:36:14;;;;;;;328.57;314.57;;;;;;;;;;4993756;28;20457;-64
2021/08/27 08:38:41;;;;;;;307.37;293.57;;;;;;;;;;4993581;28;20819;-64
2021/08/27 08:41:08;;;;;;;312.10;297.73;;;;;;;;;;4992947;28;20470;-64
2021/08/27 08:43:35;;;;;;;360.27;344.77;;;;;;;;;;5011697;28;21000;-62
2021/08/27 08:46:04;;;;;;;352.20;336.63;;;;;;;;;;4996977;28;20450;-62
2021/08/27 08:48:32;;;;;;;350.50;334.77;;;;;;;;;;4993437;28;20455;-61
2021/08/27 08:51:03;;;;;;;337.53;321.83;;;;;;;;;;4993168;28;20488;-60
2021/08/27 08:53:34;;;;;;;346.90;331.77;;;;;;;;;;4999470;28;21012;-61
2021/08/27 08:56:01;;;;;;;352.77;337.43;;;;;;;;;;4993321;28;20482;-60
2021/08/27 08:58:29;;;;;;;332.27;317.93;;;;;;;;;;4993234;28;20450;-62
2021/08/27 09:00:56;;;;;;;272.73;259.90;;;;;;;;;;4992604;28;20479;-66
2021/08/27 09:03:24;;;;;;;280.60;268.47;;;;;;;;;;4992413;28;20775;-60
2021/08/27 09:05:52;;;;;;;292.23;279.47;;;;;;;;;;4999009;28;20454;-60
2021/08/27 09:08:31;;;;;;;294.70;281.40;;;;;;;;;;5012221;28;20540;-60
2021/08/27 09:10:59;;;;;;;296.93;283.97;;;;;;;;;;5010882;28;20481;-60
2021/08/27 09:13:30;;;;;;;279.80;267.70;;;;;;;;;;4992882;28;20992;-60
2021/08/27 09:16:04;;;;;;;292.07;279.57;;;;;;;;;;4999663;28;20442;-60
2021/08/27 09:18:36;;;;;;;261.17;249.33;;;;;;;;;;5012356;28;20454;-60
2021/08/27 09:21:24;;;;;;;241.03;230.03;;;;;;;;;;4996039;28;20981;-60
2021/08/27 09:23:51;;;;;;;266.10;254.60;;;;;;;;;;4992035;28;20470;-61
2021/08/27 09:26:33;;;;;;;226.77;216.17;;;;;;;;;;4999932;28;20454;-61
2021/08/27 09:29:00;;;;;;;212.97;202.77;;;;;;;;;;5012235;28;20429;-61
2021/08/27 09:31:32;;;;;;;218.00;207.77;;;;;;;;;;5001981;28;20485;-61
2021/08/27 09:34:00;;;;;;;221.97;211.47;;;;;;;;;;4992667;28;20780;-61
2021/08/27 09:36:29;;;;;;;235.77;224.77;;;;;;;;;;4992954;28;20458;-61
2021/08/27 09:39:01;;;;;;;246.87;235.67;;;;;;;;;;4992235;28;20450;-62
2021/08/27 09:41:28;;;;;;;224.03;213.73;;;;;;;;;;4986683;28;20448;-63
2021/08/27 09:43:56;;;;;;;163.80;156.00;;;;;;;;;;4983727;28;20482;-61
2021/08/27 09:46:33;;;;;;;164.17;156.37;;;;;;;;;;4992897;28;20833;-61
2021/08/27 09:49:02;;;;;;;143.70;136.80;;;;;;;;;;4992053;28;20497;-60
2021/08/27 09:51:43;;;;;;;111.17;105.70;;;;;;;;;;4992403;28;20451;-61
2021/08/27 09:54:10;;;;;;;88.97;84.47;;;;;;;;;;4992049;28;20470;-61
2021/08/27 09:56:47;;;;;;;88.90;84.30;;;;;;;;;;4997024;28;20465;-62
2021/08/27 09:59:14;;;;;;;95.10;90.20;;;;;;;;;;4991468;28;20470;-61
2021/08/27 10:01:48;;;;;;;88.27;83.77;;;;;;;;;;4991903;28;20454;-63
2021/08/27 10:04:16;;;;;;;81.27;76.97;;;;;;;;;;4991603;28;20486;-63
2021/08/27 10:06:44;;;;;;;78.27;73.97;;;;;;;;;;4991331;28;20447;-61
2021/08/27 10:09:11;;;;;;;86.50;82.00;;;;;;;;;;4991514;28;20477;-61
2021/08/27 10:11:39;;;;;;;78.67;74.47;;;;;;;;;;4989958;28;20454;-61
2021/08/27 10:14:06;;;;;;;76.53;72.43;;;;;;;;;;4991839;28;20460;-61
2021/08/27 10:16:34;;;;;;;80.10;75.90;;;;;;;;;;4991896;28;20569;-63
2021/08/27 10:19:02;;;;;;;92.13;87.53;;;;;;;;;;4992010;28;20816;-61
2021/08/27 10:21:31;;;;;;;91.47;86.80;;;;;;;;;;4989788;28;20895;-60
2021/08/27 10:23:59;;;;;;;91.10;86.30;;;;;;;;;;4992485;28;20861;-61
2021/08/27 10:26:27;;;;;;;88.97;84.37;;;;;;;;;;4991761;28;20577;-62
2021/08/27 10:28:55;;;;;;;93.03;88.33;;;;;;;;;;4992336;28;20450;-61
2021/08/27 10:31:37;;;;;;;104.80;99.70;;;;;;;;;;4996381;28;20454;-62
2021/08/27 10:34:05;;;;;;;96.70;91.80;;;;;;;;;;5005469;28;20439;-61
2021/08/27 10:36:40;;;;;;;101.70;96.50;;;;;;;;;;4974955;28;20458;-60
2021/08/27 10:39:08;;;;;;;103.10;97.80;;;;;;;;;;4982452;28;20470;-60
2021/08/27 10:41:40;;;;;;;112.43;106.93;;;;;;;;;;4991979;28;20538;-61
2021/08/27 10:44:08;;;;;;;101.60;96.50;;;;;;;;;;4999095;28;20481;-62
2021/08/27 10:46:59;;;;;;;103.97;98.67;;;;;;;;;;5013339;28;20458;-61
2021/08/27 10:49:53;;;;;;;114.77;109.13;;;;;;;;;;5004775;28;20993;-61
2021/08/27 10:52:25;;;;;;;118.00;112.60;;;;;;;;;;4984401;28;20446;-60
2021/08/27 10:55:06;;;;;;;106.00;100.30;;;;;;;;;;4995502;28;20469;-61
2021/08/27 10:57:43;;;;;;;104.43;99.03;;;;;;;;;;4995216;28;20505;-61
2021/08/27 11:00:11;;;;;;;114.93;109.17;;;;;;;;;;4983475;28;20478;-60
2021/08/27 11:02:51;;;;;;;134.20;127.53;;;;;;;;;;4976076;28;20770;-61
2021/08/27 11:05:31;;;;;;;118.30;112.13;;;;;;;;;;4975775;28;20479;-61
2021/08/27 11:08:02;;;;;;;127.20;121.10;;;;;;;;;;4987586;28;20958;-61
2021/08/27 11:10:29;;;;;;;115.07;109.17;;;;;;;;;;4994830;28;20477;-61
2021/08/27 11:13:00;;;;;;;121.97;115.97;;;;;;;;;;4994929;28;20454;-61
2021/08/27 11:15:29;;;;;;;124.00;118.00;;;;;;;;;;4995101;28;20442;-63
2021/08/27 11:18:09;;;;;;;118.83;113.00;;;;;;;;;;4994932;28;20553;-62
2021/08/27 11:20:36;;;;;;;119.60;113.80;;;;;;;;;;5022920;22;20493;-68
2021/08/27 11:23:05;;;;;;;124.30;118.30;;;;;;;;;;5013038;28;20454;-69
2021/08/27 11:25:32;;;;;;;115.80;109.90;;;;;;;;;;5014674;28;20512;-68
2021/08/27 11:28:16;;;;;;;117.07;111.20;;;;;;;;;;5013330;28;20503;-68
2021/08/27 11:30:44;;;;;;;121.60;115.70;;;;;;;;;;4994634;28;20482;-68
2021/08/27 11:33:30;;;;;;;114.20;108.50;;;;;;;;;;4995111;28;20877;-67
2021/08/27 11:35:57;;;;;;;112.77;106.87;;;;;;;;;;4994757;28;20454;-66
2021/08/27 11:38:32;;;;;;;116.80;110.90;;;;;;;;;;4995062;28;20453;-66
2021/08/27 11:41:00;;;;;;;125.93;119.83;;;;;;;;;;4994560;28;20476;-68
2021/08/27 11:43:37;;;;;;;110.43;104.93;;;;;;;;;;4994516;28;20447;-66
2021/08/27 11:46:05;;;;;;;109.47;103.87;;;;;;;;;;4994943;28;20490;-66
2021/08/27 11:48:36;;;;;;;112.20;106.63;;;;;;;;;;4994536;28;20458;-68
2021/08/27 11:51:04;;;;;;;107.33;101.93;;;;;;;;;;4998723;28;20469;-68
2021/08/27 11:53:33;;;;;;;103.23;97.27;;;;;;;;;;5011413;28;20461;-69
2021/08/27 11:56:00;;;;;;;95.07;90.07;;;;;;;;;;5013658;28;20460;-69
2021/08/27 11:58:41;;;;;;;92.97;88.17;;;;;;;;;;5013442;28;20464;-68
2021/08/27 12:01:08;;;;;;;82.50;78.00;;;;;;;;;;5013315;28;20473;-69
2021/08/27 12:03:35;;;;;;;86.67;82.10;;;;;;;;;;5013585;28;20456;-68
2021/08/27 12:06:18;;;;;;;90.20;85.60;;;;;;;;;;5008402;28;20485;-66
2021/08/27 12:08:48;;;;;;;81.57;77.27;;;;;;;;;;5012542;28;20438;-69
2021/08/27 12:11:15;;;;;;;82.50;78.10;;;;;;;;;;4993798;28;20830;-66
2021/08/27 12:13:51;;;;;;;72.57;68.57;;;;;;;;;;4993987;28;20452;-66
2021/08/27 12:16:19;;;;;;;79.77;75.57;;;;;;;;;;4993956;28;20462;-67
2021/08/27 12:18:46;;;;;;;57.93;54.43;;;;;;;;;;4993782;28;20817;-68
2021/08/27 12:21:19;;;;;;;62.80;59.40;;;;;;;;;;5011841;28;20481;-68
2021/08/27 12:23:57;;;;;;;62.90;59.47;;;;;;;;;;5013406;28;20462;-68
2021/08/27 12:26:25;;;;;;;58.13;54.93;;;;;;;;;;5013414;28;20484;-68
2021/08/27 12:28:52;;;;;;;60.30;57.10;;;;;;;;;;5012769;28;21034;-68
2021/08/27 12:31:19;;;;;;;58.47;55.27;;;;;;;;;;5011840;28;20554;-68
2021/08/27 12:33:46;;;;;;;56.77;53.60;;;;;;;;;;5011430;28;20949;-68
2021/08/27 12:36:15;;;;;;;54.30;51.00;;;;;;;;;;4993563;28;20447;-68
2021/08/27 12:38:42;;;;;;;67.30;63.70;;;;;;;;;;4993267;28;20453;-68
2021/08/27 12:41:15;;;;;;;56.20;53.10;;;;;;;;;;4993407;28;20486;-68
2021/08/27 12:43:42;;;;;;;65.37;61.87;;;;;;;;;;5010419;28;20460;-68
2021/08/27 12:46:09;;;;;;;57.73;54.53;;;;;;;;;;5006502;28;20488;-68
2021/08/27 12:48:37;;;;;;;62.00;58.60;;;;;;;;;;5012635;28;20445;-68
2021/08/27 12:51:04;;;;;;;55.37;52.17;;;;;;;;;;4993076;28;20478;-68
2021/08/27 12:53:32;;;;;;;56.33;53.23;;;;;;;;;;5000049;28;20472;-68
2021/08/27 12:56:13;;;;;;;52.17;49.00;;;;;;;;;;5012208;28;20476;-68
2021/08/27 12:58:42;;;;;;;49.40;46.50;;;;;;;;;;5014732;28;20453;-68
2021/08/27 13:01:12;;;;;;;50.40;47.50;;;;;;;;;;5001019;28;21001;-68
2021/08/27 13:03:40;;;;;;;48.80;46.00;;;;;;;;;;4996130;28;20952;-68
2021/08/27 13:06:07;;;;;;;60.13;56.73;;;;;;;;;;5009913;28;20488;-68
2021/08/27 13:08:35;;;;;;;57.90;54.40;;;;;;;;;;5012208;28;20460;-68
2021/08/27 13:11:06;;;;;;;58.67;55.37;;;;;;;;;;5010190;28;20973;-68
2021/08/27 13:13:35;;;;;;;57.20;53.93;;;;;;;;;;5009515;28;20476;-68
2021/08/27 13:16:08;;;;;;;53.33;50.33;;;;;;;;;;5029402;28;20495;-69
2021/08/27 13:18:42;;;;;;;55.10;52.00;;;;;;;;;;5022717;28;20449;-68
2021/08/27 13:21:09;;;;;;;51.50;48.50;;;;;;;;;;5011497;28;20564;-68
2021/08/27 13:23:36;;;;;;;52.57;49.57;;;;;;;;;;5012265;28;20941;-68
2021/08/27 13:26:08;;;;;;;52.10;49.10;;;;;;;;;;5011478;28;20492;-68
2021/08/27 13:28:35;;;;;;;49.40;46.70;;;;;;;;;;5012337;28;20533;-68
2021/08/27 13:31:02;;;;;;;49.00;46.20;;;;;;;;;;5028648;28;20472;-68
2021/08/27 13:33:31;;;;;;;48.97;46.17;;;;;;;;;;5012085;28;20491;-69
2021/08/27 13:35:58;;;;;;;47.67;44.97;;;;;;;;;;5011016;28;20465;-67
2021/08/27 13:38:25;;;;;;;47.30;44.43;;;;;;;;;;5011323;28;20453;-69
2021/08/27 13:40:54;;;;;;;50.57;47.77;;;;;;;;;;5011068;28;20571;-66
2021/08/27 13:43:21;;;;;;;45.83;43.23;;;;;;;;;;4994389;28;20516;-69
2021/08/27 13:45:48;;;;;;;48.13;45.43;;;;;;;;;;4999279;28;21066;-68
2021/08/27 13:48:15;;;;;;;49.50;46.20;;;;;;;;;;4992381;28;20537;-68
2021/08/27 13:50:44;;;;;;;44.57;41.97;;;;;;;;;;4992210;28;20485;-68
2021/08/27 13:53:11;;;;;;;45.10;42.40;;;;;;;;;;4992427;28;20473;-69
2021/08/27 13:55:38;;;;;;;43.87;41.37;;;;;;;;;;4997153;28;20450;-68
2021/08/27 13:58:06;;;;;;;44.70;42.30;;;;;;;;;;4992413;28;20486;-67
2021/08/27 14:00:33;;;;;;;45.07;42.47;;;;;;;;;;4992058;28;20470;-67
2021/08/27 14:12:12;;;;;;;51.27;48.37;;;;;;;;;;5002402;28;20408;-66
2021/08/27 14:14:39;;;;;;;53.27;50.27;;;;;;;;;;4993253;28;20446;-66
2021/08/27 14:17:07;;;;;;;52.30;49.50;;;;;;;;;;5019234;28;20437;-66